createdAt,value
2022-09-10T00:01:32.253Z,18.10
2022-09-10T00:04:01.397Z,16.40
2022-09-10T00:06:33.055Z,18.08
2022-09-10T00:09:02.484Z,20.02
2022-09-10T00:11:31.938Z,18.85
2022-09-10T00:14:00.437Z,19.35
2022-09-10T00:16:29.243Z,20.40
2022-09-10T00:18:58.187Z,21.08
2022-09-10T00:21:26.237Z,27.08
2022-09-10T00:23:54.451Z,26.50
2022-09-10T00:26:26.596Z,27.88
2022-09-10T00:31:24.490Z,26.67
2022-09-10T00:33:54.694Z,27.13
2022-09-10T00:36:25.455Z,28.15
2022-09-10T00:38:55.808Z,27.55
2022-09-10T00:41:26.365Z,28.45
2022-09-10T00:43:56.122Z,28.00
2022-09-10T00:46:30.985Z,28.50
2022-09-10T00:49:01.963Z,27.48
2022-09-10T00:51:34.611Z,28.17
2022-09-10T00:54:03.622Z,29.73
2022-09-10T00:56:34.821Z,29.50
2022-09-10T00:59:03.897Z,29.70
2022-09-10T01:01:33.609Z,29.92
2022-09-10T01:04:04.566Z,31.42
2022-09-10T01:06:32.847Z,35.05
2022-09-10T01:09:02.956Z,35.38
2022-09-10T01:11:47.773Z,35.40
2022-09-10T01:14:43.548Z,37.83
2022-09-10T01:17:26.689Z,37.50
2022-09-10T01:20:18.852Z,34.95
2022-09-10T01:23:04.770Z,36.90
2022-09-10T01:25:44.989Z,36.63
2022-09-10T01:28:20.260Z,39.50
2022-09-10T01:30:54.732Z,38.60
2022-09-10T01:33:31.786Z,40.45
2022-09-10T01:36:02.861Z,36.50
2022-09-10T01:38:34.825Z,37.92
2022-09-10T01:41:03.308Z,31.80
2022-09-10T01:43:33.204Z,29.38
2022-09-10T01:46:15.640Z,27.95
2022-09-10T01:49:14.579Z,25.90
2022-09-10T01:51:56.285Z,24.65
2022-09-10T01:54:39.369Z,21.30
2022-09-10T01:57:14.774Z,22.98
2022-09-10T01:59:51.829Z,24.90
2022-09-10T02:02:23.531Z,26.30
2022-09-10T02:04:53.348Z,28.15
2022-09-10T02:07:26.879Z,27.45
2022-09-10T02:09:55.637Z,29.83
2022-09-10T02:12:24.527Z,30.05
2022-09-10T02:14:56.335Z,36.65
2022-09-10T02:17:30.940Z,33.20
2022-09-10T02:20:00.475Z,36.30
2022-09-10T02:22:31.609Z,37.40
2022-09-10T02:24:59.669Z,38.40
2022-09-10T02:27:30.013Z,39.45
2022-09-10T02:29:59.545Z,39.45
2022-09-10T02:32:28.221Z,37.90
2022-09-10T02:34:56.010Z,39.90
2022-09-10T02:37:24.203Z,37.33
2022-09-10T02:39:52.049Z,40.00
2022-09-10T02:42:20.076Z,41.63
2022-09-10T02:44:48.218Z,42.20
2022-09-10T02:47:18.180Z,40.05
2022-09-10T02:49:46.874Z,40.55
2022-09-10T02:52:14.910Z,41.38
2022-09-10T02:54:42.728Z,39.88
2022-09-10T02:57:12.173Z,40.97
2022-09-10T02:59:40.192Z,40.40
2022-09-10T03:02:07.943Z,41.72
2022-09-10T03:04:37.116Z,41.25
2022-09-10T03:07:05.440Z,40.83
2022-09-10T03:09:33.327Z,39.72
2022-09-10T03:12:01.052Z,41.00
2022-09-10T03:14:30.292Z,44.92
2022-09-10T03:16:58.198Z,46.30
2022-09-10T03:19:25.924Z,46.15
2022-09-10T03:21:55.267Z,37.38
2022-09-10T03:24:23.317Z,27.55
2022-09-10T03:26:51.074Z,24.83
2022-09-10T03:29:19.205Z,25.65
2022-09-10T03:31:46.959Z,24.17
2022-09-10T03:34:15.228Z,25.00
2022-09-10T03:36:43.210Z,25.58
2022-09-10T03:39:12.386Z,27.13
2022-09-10T03:41:40.294Z,28.25
2022-09-10T03:44:08.392Z,34.35
2022-09-10T03:46:37.728Z,33.28
2022-09-10T03:49:05.913Z,32.80
2022-09-10T03:51:35.196Z,29.33
2022-09-10T03:54:02.945Z,32.67
2022-09-10T03:56:32.222Z,34.63
2022-09-10T03:59:00.521Z,33.92
2022-09-10T04:01:28.329Z,35.78
2022-09-10T04:03:56.842Z,35.47
2022-09-10T04:06:24.857Z,32.95
2022-09-10T04:08:53.417Z,31.58
2022-09-10T04:11:23.896Z,32.58
2022-09-10T04:13:53.951Z,32.50
2022-09-10T04:16:23.287Z,30.10
2022-09-10T04:18:51.314Z,33.83
2022-09-10T04:21:20.191Z,46.20
2022-09-10T04:23:47.900Z,47.08
2022-09-10T04:26:17.456Z,45.80
2022-09-10T04:28:46.183Z,47.83
2022-09-10T04:31:15.553Z,49.67
2022-09-10T04:33:43.291Z,49.33
2022-09-10T04:36:12.792Z,50.42
2022-09-10T04:38:42.095Z,49.40
2022-09-10T04:41:10.114Z,50.40
2022-09-10T04:43:38.721Z,47.70
2022-09-10T04:46:06.642Z,48.05
2022-09-10T04:48:36.007Z,50.13
2022-09-10T04:51:16.057Z,51.10
2022-09-10T04:53:45.354Z,49.28
2022-09-10T04:56:13.914Z,49.40
2022-09-10T04:58:42.147Z,44.20
2022-09-10T05:01:10.319Z,37.47
2022-09-10T05:03:39.813Z,41.03
2022-09-10T05:06:07.755Z,41.08
2022-09-10T05:08:36.553Z,40.20
2022-09-10T05:11:05.159Z,39.85
2022-09-10T05:13:32.919Z,39.58
2022-09-10T05:16:01.566Z,40.20
2022-09-10T05:18:29.830Z,36.70
2022-09-10T05:20:58.910Z,35.38
2022-09-10T05:23:27.190Z,35.00
2022-09-10T05:25:56.698Z,37.22
2022-09-10T05:28:24.825Z,36.05
2022-09-10T05:30:52.604Z,36.35
2022-09-10T05:33:21.361Z,36.10
2022-09-10T05:35:51.532Z,35.78
2022-09-10T05:38:20.879Z,34.97
2022-09-10T05:40:49.030Z,33.90
2022-09-10T05:43:16.755Z,33.83
2022-09-10T05:45:44.561Z,34.63
2022-09-10T05:48:13.237Z,35.85
2022-09-10T05:50:41.333Z,35.70
2022-09-10T05:53:10.000Z,34.53
2022-09-10T05:55:39.757Z,34.28
2022-09-10T05:58:07.512Z,35.03
2022-09-10T06:00:36.475Z,37.17
2022-09-10T06:03:05.902Z,35.35
2022-09-10T06:05:33.735Z,36.60
2022-09-10T06:08:06.510Z,34.63
2022-09-10T06:10:36.849Z,34.50
2022-09-10T06:13:05.909Z,34.78
2022-09-10T06:15:37.813Z,34.33
2022-09-10T06:18:05.890Z,33.40
2022-09-10T06:20:33.682Z,30.40
2022-09-10T06:23:01.457Z,32.45
2022-09-10T06:25:29.549Z,30.05
2022-09-10T06:27:57.253Z,28.02
2022-09-10T06:30:26.460Z,29.60
2022-09-10T06:32:54.863Z,30.23
2022-09-10T06:35:22.774Z,29.52
2022-09-10T06:37:50.576Z,26.02
2022-09-10T06:40:18.670Z,28.88
2022-09-10T06:42:46.573Z,30.75
2022-09-10T06:45:14.580Z,28.75
2022-09-10T06:48:36.785Z,28.75
2022-09-10T06:50:31.855Z,24.48
2022-09-10T06:52:59.845Z,26.00
2022-09-10T06:55:27.559Z,23.10
2022-09-10T06:57:55.476Z,23.52
2022-09-10T07:00:23.469Z,19.73
2022-09-10T07:02:54.249Z,18.67
2022-09-10T07:05:22.066Z,17.38
2022-09-10T07:07:50.090Z,17.80
2022-09-10T07:10:17.876Z,17.13
2022-09-10T07:12:45.926Z,17.88
2022-09-10T07:15:14.054Z,16.80
2022-09-10T07:17:41.775Z,17.38
2022-09-10T07:20:11.354Z,20.13
2022-09-10T07:22:39.491Z,17.65
2022-09-10T07:25:08.552Z,17.30
2022-09-10T07:27:36.389Z,18.85
2022-09-10T07:30:04.916Z,18.00
2022-09-10T07:32:35.179Z,18.42
2022-09-10T07:35:02.896Z,18.55
2022-09-10T07:37:32.238Z,18.55
2022-09-10T07:40:00.110Z,16.05
2022-09-10T07:42:28.392Z,17.92
2022-09-10T07:44:56.424Z,17.23
2022-09-10T07:47:24.288Z,17.52
2022-09-10T07:49:53.177Z,17.25
2022-09-10T07:52:21.644Z,17.25
2022-09-10T07:54:50.741Z,19.13
2022-09-10T07:57:18.733Z,17.85
2022-09-10T07:59:47.479Z,19.30
2022-09-10T08:02:16.241Z,17.58
2022-09-10T08:04:44.029Z,16.10
2022-09-10T08:07:12.645Z,15.57
2022-09-10T08:09:40.365Z,13.35
2022-09-10T08:12:09.949Z,14.18
2022-09-10T08:14:38.359Z,16.02
2022-09-10T08:17:06.862Z,12.70
2022-09-10T08:19:34.825Z,14.05
2022-09-10T08:22:03.512Z,15.90
2022-09-10T08:24:31.531Z,13.70
2022-09-10T08:26:59.395Z,9.50
2022-09-10T08:29:29.841Z,10.20
2022-09-10T08:31:58.219Z,10.13
2022-09-10T08:34:27.015Z,10.27
2022-09-10T08:36:55.497Z,9.52
2022-09-10T08:39:24.091Z,11.27
2022-09-10T08:41:57.154Z,11.55
2022-09-10T08:44:35.649Z,11.70
2022-09-10T08:47:14.849Z,10.27
2022-09-10T08:49:46.933Z,10.75
2022-09-10T08:52:21.748Z,9.27
2022-09-10T08:54:58.396Z,9.48
2022-09-10T08:57:32.384Z,10.63
2022-09-10T09:00:03.651Z,5.82
2022-09-10T09:02:49.143Z,5.80
2022-09-10T09:05:20.031Z,7.63
2022-09-10T09:07:49.411Z,7.63
2022-09-10T09:10:28.247Z,7.95
2022-09-10T09:13:17.811Z,8.10
2022-09-10T09:15:56.041Z,8.73
2022-09-10T09:18:31.382Z,8.75
2022-09-10T09:21:04.276Z,7.20
2022-09-10T09:24:02.777Z,7.60
2022-09-10T09:26:36.486Z,8.60
2022-09-10T09:29:10.852Z,11.40
2022-09-10T09:31:43.694Z,12.63
2022-09-10T09:34:19.185Z,7.85
2022-09-10T09:36:51.220Z,5.32
2022-09-10T09:39:25.716Z,5.55
2022-09-10T09:42:03.177Z,5.30
2022-09-10T09:44:38.774Z,6.00
2022-09-10T09:47:08.929Z,4.75
2022-09-10T09:49:37.052Z,4.60
2022-09-10T09:52:18.402Z,4.07
2022-09-10T09:55:15.682Z,4.45
2022-09-10T09:57:38.910Z,4.38
2022-09-10T10:00:36.505Z,4.90
2022-09-10T10:03:13.991Z,4.80
2022-09-10T10:05:42.345Z,4.80
2022-09-10T10:08:30.758Z,4.38
2022-09-10T10:10:59.781Z,4.72
2022-09-10T10:13:37.224Z,4.05
2022-09-10T10:16:17.159Z,4.05
2022-09-10T10:18:46.775Z,4.13
2022-09-10T10:21:18.537Z,4.38
2022-09-10T10:23:47.204Z,4.68
2022-09-10T10:26:25.453Z,3.00
2022-09-10T10:28:58.572Z,3.30
2022-09-10T10:31:36.466Z,3.33
2022-09-10T10:34:29.209Z,3.53
2022-09-10T10:37:08.277Z,2.80
2022-09-10T10:39:53.175Z,3.42
2022-09-10T10:42:30.454Z,3.58
2022-09-10T10:45:11.459Z,3.42
2022-09-10T10:47:48.469Z,3.50
2022-09-10T10:50:31.137Z,3.20
2022-09-10T10:53:28.438Z,2.80
2022-09-10T10:56:05.156Z,2.10
2022-09-10T10:58:54.515Z,2.20
2022-09-10T11:01:25.043Z,2.03
2022-09-10T11:04:00.948Z,2.20
2022-09-10T11:06:35.965Z,2.60
2022-09-10T11:09:08.635Z,2.45
2022-09-10T11:11:45.582Z,2.70
2022-09-10T11:14:23.069Z,2.90
2022-09-10T11:16:58.472Z,3.05
2022-09-10T11:19:35.718Z,2.88
2022-09-10T11:22:12.973Z,2.58
2022-09-10T11:24:47.926Z,2.72
2022-09-10T11:27:20.218Z,2.53
2022-09-10T11:29:54.501Z,2.90
2022-09-10T11:32:31.841Z,2.88
2022-09-10T11:35:17.930Z,2.55
2022-09-10T11:37:55.645Z,2.63
2022-09-10T11:40:32.106Z,3.00
2022-09-10T11:43:04.975Z,3.15
2022-09-10T11:45:40.948Z,3.38
2022-09-10T11:48:17.370Z,3.22
2022-09-10T11:50:50.685Z,2.75
2022-09-10T11:53:23.232Z,3.70
2022-09-10T11:56:24.412Z,3.08
2022-09-10T11:59:04.774Z,2.92
2022-09-10T12:01:51.803Z,3.65
2022-09-10T12:04:51.668Z,3.40
2022-09-10T12:07:31.822Z,3.30
2022-09-10T12:10:14.490Z,3.60
2022-09-10T12:12:44.982Z,3.50
2022-09-10T12:15:19.985Z,3.17
2022-09-10T12:17:52.221Z,3.78
2022-09-10T12:22:54.653Z,3.83
2022-09-10T12:25:33.972Z,3.60
2022-09-10T12:28:07.622Z,3.80
2022-09-10T12:31:01.330Z,4.03
2022-09-10T12:33:58.030Z,3.67
2022-09-10T12:37:14.838Z,3.38
2022-09-10T12:39:43.319Z,3.75
2022-09-10T12:42:32.549Z,3.25
2022-09-10T12:45:00.674Z,4.22
2022-09-10T12:47:52.925Z,3.95
2022-09-10T12:50:36.270Z,4.10
2022-09-10T12:53:30.896Z,4.00
2022-09-10T12:56:06.283Z,4.00
2022-09-10T12:58:50.009Z,3.72
2022-09-10T13:01:31.334Z,3.72
2022-09-10T13:04:02.414Z,3.55
2022-09-10T13:06:38.209Z,3.47
2022-09-10T13:09:18.506Z,3.63
2022-09-10T13:11:50.457Z,3.55
2022-09-10T13:14:25.346Z,2.60
2022-09-10T13:16:55.239Z,2.35
2022-09-10T13:19:49.876Z,2.20
2022-09-10T13:22:52.217Z,1.83
2022-09-10T13:25:34.847Z,2.10
2022-09-10T13:28:03.028Z,2.10
2022-09-10T13:30:32.481Z,1.85
2022-09-10T13:33:05.483Z,1.77
2022-09-10T13:36:13.209Z,2.47
2022-09-10T13:39:08.265Z,2.30
2022-09-10T13:42:11.296Z,2.08
2022-09-10T13:44:54.808Z,2.30
2022-09-10T13:47:32.835Z,2.42
2022-09-10T13:50:05.241Z,2.03
2022-09-10T13:52:36.229Z,3.13
2022-09-10T13:55:08.634Z,2.22
2022-09-10T13:57:41.654Z,2.10
2022-09-10T14:00:20.663Z,2.00
2022-09-10T14:02:52.707Z,2.20
2022-09-10T14:05:33.334Z,2.20
2022-09-10T14:08:05.356Z,2.70
2022-09-10T14:10:36.661Z,2.35
2022-09-10T14:13:05.665Z,2.58
2022-09-10T14:15:39.533Z,2.75
2022-09-10T14:18:11.441Z,2.50
2022-09-10T14:20:41.085Z,2.40
2022-09-10T14:23:15.799Z,2.95
2022-09-10T14:25:45.921Z,2.50
2022-09-10T14:28:35.948Z,2.35
2022-09-10T14:31:23.110Z,2.17
2022-09-10T14:33:52.978Z,2.03
2022-09-10T14:36:23.099Z,2.47
2022-09-10T14:38:57.817Z,2.50
2022-09-10T14:41:28.362Z,2.65
2022-09-10T14:44:15.230Z,3.17
2022-09-10T14:46:52.362Z,2.83
2022-09-10T14:49:26.730Z,3.35
2022-09-10T14:51:55.638Z,3.53
2022-09-10T14:54:24.419Z,3.30
2022-09-10T14:56:52.898Z,3.90
2022-09-10T14:59:30.686Z,4.20
2022-09-10T15:02:00.795Z,3.95
2022-09-10T15:04:31.010Z,4.10
2022-09-10T15:07:00.733Z,4.53
2022-09-10T15:09:31.035Z,3.85
2022-09-10T15:12:03.345Z,4.13
2022-09-10T15:14:32.850Z,4.57
2022-09-10T15:17:01.570Z,4.55
2022-09-10T15:19:30.634Z,4.07
2022-09-10T15:21:59.629Z,4.93
2022-09-10T15:24:28.280Z,5.03
2022-09-10T15:26:57.312Z,5.57
2022-09-10T15:29:26.164Z,5.18
2022-09-10T15:31:54.249Z,5.43
2022-09-10T15:34:21.937Z,4.95
2022-09-10T15:36:53.170Z,4.65
2022-09-10T15:39:21.141Z,5.13
2022-09-10T15:41:49.093Z,4.93
2022-09-10T15:44:18.287Z,3.67
2022-09-10T15:46:47.053Z,3.65
2022-09-10T15:49:14.770Z,3.78
2022-09-10T15:51:42.530Z,3.72
2022-09-10T15:54:12.486Z,3.58
2022-09-10T15:56:40.948Z,4.03
2022-09-10T15:59:10.221Z,3.75
2022-09-10T16:01:39.368Z,3.75
2022-09-10T16:04:07.488Z,4.50
2022-09-10T16:06:37.906Z,4.82
2022-09-10T16:09:09.009Z,4.72
2022-09-10T16:11:40.343Z,4.80
2022-09-10T16:14:12.463Z,4.45
2022-09-10T16:19:09.154Z,4.03
2022-09-10T16:21:39.159Z,4.82
2022-09-10T16:24:07.541Z,4.68
2022-09-10T16:26:38.772Z,4.95
2022-09-10T16:29:08.700Z,6.30
2022-09-10T16:31:39.054Z,4.68
2022-09-10T16:34:08.904Z,5.78
2022-09-10T16:36:37.977Z,5.40
2022-09-10T16:39:12.137Z,5.80
2022-09-10T16:41:43.663Z,5.82
2022-09-10T16:44:12.542Z,7.00
2022-09-10T16:46:40.584Z,6.53
2022-09-10T16:49:12.418Z,6.15
2022-09-10T16:51:40.643Z,6.30
2022-09-10T16:54:09.242Z,6.40
2022-09-10T16:56:39.904Z,7.13
2022-09-10T16:59:13.902Z,7.40
2022-09-10T17:01:44.389Z,7.72
2022-09-10T17:04:18.834Z,8.30
2022-09-10T17:06:48.102Z,8.82
2022-09-10T17:09:16.222Z,7.75
2022-09-10T17:11:44.044Z,9.02
2022-09-10T17:14:13.598Z,8.82
2022-09-10T17:16:43.680Z,8.77
2022-09-10T17:19:14.034Z,8.10
2022-09-10T17:21:44.293Z,8.93
2022-09-10T17:24:13.954Z,9.52
2022-09-10T17:26:42.713Z,9.73
2022-09-10T17:29:14.580Z,9.55
2022-09-10T17:34:13.136Z,13.35
2022-09-10T17:36:42.252Z,87.10
2022-09-10T17:39:10.244Z,27.20
2022-09-10T17:41:39.548Z,20.17
2022-09-10T17:44:07.956Z,15.95
2022-09-10T17:46:37.137Z,14.05
2022-09-10T17:49:05.666Z,10.82
2022-09-10T17:51:35.605Z,10.98
2022-09-10T17:54:03.874Z,9.45
2022-09-10T17:56:32.388Z,9.15
2022-09-10T17:59:02.599Z,9.77
2022-09-10T18:01:32.079Z,9.55
2022-09-10T18:04:01.476Z,9.40
2022-09-10T18:06:29.810Z,8.32
2022-09-10T18:08:58.731Z,7.88
2022-09-10T18:11:29.608Z,6.85
2022-09-10T18:13:59.023Z,7.38
2022-09-10T18:16:28.750Z,5.80
2022-09-10T18:18:59.391Z,5.18
2022-09-10T18:21:30.930Z,4.35
2022-09-10T18:24:01.177Z,5.43
2022-09-10T18:26:31.319Z,6.13
2022-09-10T18:29:01.899Z,6.35
2022-09-10T18:31:32.199Z,5.15
2022-09-10T18:34:00.865Z,3.47
2022-09-10T18:36:30.357Z,4.57
2022-09-10T18:38:58.850Z,4.07
2022-09-10T18:41:28.590Z,4.20
2022-09-10T18:43:59.061Z,4.22
2022-09-10T18:46:28.996Z,3.70
2022-09-10T18:48:57.675Z,3.65
2022-09-10T18:51:27.488Z,3.72
2022-09-10T18:53:59.897Z,3.47
2022-09-10T18:56:29.831Z,3.20
2022-09-10T18:59:00.811Z,3.67
2022-09-10T19:01:30.950Z,3.28
2022-09-10T19:03:59.425Z,5.20
2022-09-10T19:06:28.748Z,5.03
2022-09-10T19:08:59.558Z,5.85
2022-09-10T19:11:33.065Z,5.70
2022-09-10T19:14:02.396Z,6.53
2022-09-10T19:16:32.373Z,5.45
2022-09-10T19:19:02.681Z,5.15
2022-09-10T19:21:32.479Z,5.47
2022-09-10T19:24:02.609Z,9.93
2022-09-10T19:26:33.105Z,10.40
2022-09-10T19:29:02.741Z,13.63
2022-09-10T19:31:33.812Z,13.13
2022-09-10T19:34:04.149Z,11.77
2022-09-10T19:36:35.272Z,10.18
2022-09-10T19:39:06.359Z,9.98
2022-09-10T19:41:35.467Z,10.07
2022-09-10T19:44:04.161Z,8.05
2022-09-10T19:46:33.317Z,8.40
2022-09-10T19:49:01.547Z,7.43
2022-09-10T19:51:32.069Z,7.50
2022-09-10T19:54:00.584Z,6.82
2022-09-10T19:56:32.244Z,6.97
2022-09-10T19:59:02.513Z,7.28
2022-09-10T20:01:33.017Z,6.65
2022-09-10T20:04:02.058Z,6.43
2022-09-10T20:06:30.611Z,5.45
2022-09-10T20:08:59.264Z,5.55
2022-09-10T20:11:28.504Z,5.57
2022-09-10T20:13:59.989Z,5.13
2022-09-10T20:18:56.247Z,4.80
2022-09-10T20:21:25.939Z,4.45
2022-09-10T20:23:55.601Z,4.78
2022-09-10T20:26:26.629Z,3.97
2022-09-10T20:28:57.873Z,3.08
2022-09-10T20:31:28.107Z,2.13
2022-09-10T20:33:57.715Z,1.65
2022-09-10T20:36:27.324Z,2.20
2022-09-10T20:38:56.765Z,1.77
2022-09-10T20:41:29.949Z,2.08
2022-09-10T20:44:01.505Z,1.40
2022-09-10T20:46:31.662Z,1.20
2022-09-10T20:49:02.955Z,1.30
2022-09-10T20:51:32.761Z,1.73
2022-09-10T20:54:01.259Z,2.00
2022-09-10T20:56:29.280Z,2.45
2022-09-10T20:58:57.301Z,2.45
2022-09-10T21:01:28.482Z,2.50
2022-09-10T21:03:59.229Z,3.28
2022-09-10T21:06:30.072Z,2.85
2022-09-10T21:08:57.843Z,3.00
2022-09-10T21:11:28.512Z,3.53
2022-09-10T21:13:58.599Z,3.10
2022-09-10T21:16:29.976Z,3.70
2022-09-10T21:19:00.641Z,3.45
2022-09-10T21:21:29.985Z,3.20
2022-09-10T21:23:59.756Z,3.53
2022-09-10T21:26:29.523Z,3.33
2022-09-10T21:28:58.935Z,2.88
2022-09-10T21:31:29.255Z,3.30
2022-09-10T21:34:02.807Z,3.03
2022-09-10T21:36:32.055Z,3.05
2022-09-10T21:39:01.480Z,3.15
2022-09-10T21:41:32.097Z,3.10
2022-09-10T21:44:00.625Z,2.75
2022-09-10T21:46:30.390Z,2.80
2022-09-10T21:48:58.324Z,2.72
2022-09-10T21:51:26.497Z,2.83
2022-09-10T21:53:55.870Z,2.80
2022-09-10T21:56:25.844Z,2.90
2022-09-10T21:58:53.769Z,2.22
2022-09-10T22:01:24.233Z,2.90
2022-09-10T22:03:54.657Z,3.40
2022-09-10T22:06:24.563Z,2.65
2022-09-10T22:08:55.075Z,3.15
2022-09-10T22:11:25.560Z,2.50
2022-09-10T22:13:55.550Z,2.67
2022-09-10T22:16:23.595Z,2.53
2022-09-10T22:18:53.833Z,2.85
2022-09-10T22:21:21.526Z,2.90
2022-09-10T22:23:51.606Z,2.65
2022-09-10T22:26:22.914Z,2.55
2022-09-10T22:28:54.029Z,2.38
2022-09-10T22:31:24.162Z,2.58
2022-09-10T22:33:55.877Z,2.60
2022-09-10T22:36:26.181Z,2.22
2022-09-10T22:38:56.675Z,2.47
2022-09-10T22:41:24.714Z,2.17
2022-09-10T22:43:53.020Z,2.60
2022-09-10T22:46:23.017Z,2.55
2022-09-10T22:48:51.449Z,2.38
2022-09-10T22:51:23.637Z,2.83
2022-09-10T22:56:22.081Z,2.53
2022-09-10T22:58:51.620Z,2.80
2022-09-10T23:01:21.178Z,2.42
2022-09-10T23:03:49.431Z,2.50
2022-09-10T23:06:21.300Z,2.72
2022-09-10T23:08:51.181Z,2.42
2022-09-10T23:11:21.828Z,2.95
2022-09-10T23:13:52.420Z,2.40
2022-09-10T23:16:22.196Z,2.47
2022-09-10T23:18:52.136Z,2.05
2022-09-10T23:21:23.071Z,2.08
2022-09-10T23:23:52.957Z,2.70
2022-09-10T23:26:22.601Z,2.55
2022-09-10T23:28:51.053Z,2.35
2022-09-10T23:31:20.991Z,2.50
2022-09-10T23:33:55.032Z,2.65
2022-09-10T23:36:25.032Z,2.30
2022-09-10T23:38:52.841Z,1.90
2022-09-10T23:41:21.561Z,2.30
2022-09-10T23:43:49.738Z,2.55
2022-09-10T23:46:18.571Z,1.92
2022-09-10T23:48:46.758Z,1.83
2022-09-10T23:51:16.453Z,2.10
2022-09-10T23:53:45.918Z,2.13
2022-09-10T23:56:13.950Z,2.10
2022-09-10T23:58:42.278Z,1.80
